sensor_id;sensor_type;location;lat;lon;timestamp;pressure;altitude;pressure_sealevel;temperature;humidity
26563;BME280;14217;50.986;5.826;2023-05-23T00:02:39;101201.47;;;24.56;45.28
26563;BME280;14217;50.986;5.826;2023-05-23T00:07:42;101195.38;;;24.54;45.06
26563;BME280;14217;50.986;5.826;2023-05-23T00:12:46;101204.25;;;24.54;45.25
26563;BME280;14217;50.986;5.826;2023-05-23T00:17:52;101199.84;;;24.53;45.26
26563;BME280;14217;50.986;5.826;2023-05-23T00:23:00;101190.66;;;24.58;45.07
26563;BME280;14217;50.986;5.826;2023-05-23T00:28:06;101197.00;;;24.57;45.21
26563;BME280;14217;50.986;5.826;2023-05-23T00:33:10;101202.34;;;24.57;45.14
26563;BME280;14217;50.986;5.826;2023-05-23T00:38:16;101205.97;;;24.55;45.04
26563;BME280;14217;50.986;5.826;2023-05-23T00:43:23;101205.13;;;24.55;44.99
26563;BME280;14217;50.986;5.826;2023-05-23T00:48:26;101220.22;;;24.56;44.99
26563;BME280;14217;50.986;5.826;2023-05-23T00:53:29;101223.88;;;24.55;44.79
26563;BME280;14217;50.986;5.826;2023-05-23T00:58:38;101232.97;;;24.52;45.11
26563;BME280;14217;50.986;5.826;2023-05-23T01:03:41;101241.84;;;24.53;45.04
26563;BME280;14217;50.986;5.826;2023-05-23T01:08:46;101239.09;;;24.54;45.09
26563;BME280;14217;50.986;5.826;2023-05-23T01:13:59;101249.03;;;24.52;44.69
26563;BME280;14217;50.986;5.826;2023-05-23T01:25:07;101250.09;;;24.50;44.93
26563;BME280;14217;50.986;5.826;2023-05-23T01:30:12;101262.44;;;24.52;45.09
26563;BME280;14217;50.986;5.826;2023-05-23T01:35:25;101263.38;;;24.51;45.03
26563;BME280;14217;50.986;5.826;2023-05-23T01:40:28;101274.97;;;24.52;44.79
26563;BME280;14217;50.986;5.826;2023-05-23T01:45:35;101264.91;;;24.55;44.65
26563;BME280;14217;50.986;5.826;2023-05-23T01:50:38;101274.09;;;24.51;44.53
26563;BME280;14217;50.986;5.826;2023-05-23T01:55:42;101268.56;;;24.54;44.71
26563;BME280;14217;50.986;5.826;2023-05-23T02:00:50;101268.56;;;24.54;44.59
26563;BME280;14217;50.986;5.826;2023-05-23T02:05:52;101268.34;;;24.58;44.21
26563;BME280;14217;50.986;5.826;2023-05-23T02:10:57;101271.13;;;24.56;44.52
26563;BME280;14217;50.986;5.826;2023-05-23T02:16:04;101275.84;;;24.52;44.55
26563;BME280;14217;50.986;5.826;2023-05-23T02:21:06;101264.06;;;24.55;44.38
26563;BME280;14217;50.986;5.826;2023-05-23T02:26:09;101265.75;;;24.56;44.35
26563;BME280;14217;50.986;5.826;2023-05-23T02:31:11;101271.25;;;24.54;44.35
26563;BME280;14217;50.986;5.826;2023-05-23T02:36:13;101273.31;;;24.49;44.39
26563;BME280;14217;50.986;5.826;2023-05-23T02:41:18;101287.50;;;24.51;44.40
26563;BME280;14217;50.986;5.826;2023-05-23T02:46:21;101276.78;;;24.51;44.39
26563;BME280;14217;50.986;5.826;2023-05-23T02:51:24;101279.28;;;24.54;44.40
26563;BME280;14217;50.986;5.826;2023-05-23T02:56:29;101294.38;;;24.55;44.25
26563;BME280;14217;50.986;5.826;2023-05-23T03:01:35;101281.84;;;24.56;44.25
26563;BME280;14217;50.986;5.826;2023-05-23T03:06:39;101293.53;;;24.55;44.04
26563;BME280;14217;50.986;5.826;2023-05-23T03:11:46;101296.41;;;24.52;44.00
26563;BME280;14217;50.986;5.826;2023-05-23T03:16:50;101304.31;;;24.53;44.19
26563;BME280;14217;50.986;5.826;2023-05-23T03:21:53;101304.53;;;24.50;44.17
26563;BME280;14217;50.986;5.826;2023-05-23T03:26:55;101313.78;;;24.45;44.75
26563;BME280;14217;50.986;5.826;2023-05-23T03:31:58;101317.13;;;24.48;46.08
26563;BME280;14217;50.986;5.826;2023-05-23T03:37:00;101320.59;;;24.50;45.88
26563;BME280;14217;50.986;5.826;2023-05-23T03:42:02;101325.25;;;24.47;45.93
26563;BME280;14217;50.986;5.826;2023-05-23T03:47:05;101326.47;;;24.41;46.35
26563;BME280;14217;50.986;5.826;2023-05-23T03:52:07;101335.50;;;24.40;46.19
26563;BME280;14217;50.986;5.826;2023-05-23T04:02:16;101342.19;;;24.33;45.99
26563;BME280;14217;50.986;5.826;2023-05-23T04:07:18;101345.34;;;24.40;45.59
26563;BME280;14217;50.986;5.826;2023-05-23T04:12:20;101350.16;;;24.49;45.49
26563;BME280;14217;50.986;5.826;2023-05-23T04:17:23;101347.41;;;24.50;45.21
26563;BME280;14217;50.986;5.826;2023-05-23T04:22:25;101348.25;;;24.51;44.84
26563;BME280;14217;50.986;5.826;2023-05-23T04:27:27;101357.31;;;24.48;45.00
26563;BME280;14217;50.986;5.826;2023-05-23T04:32:29;101350.94;;;24.51;44.86
26563;BME280;14217;50.986;5.826;2023-05-23T04:37:31;101359.41;;;24.43;44.97
26563;BME280;14217;50.986;5.826;2023-05-23T04:42:34;101359.31;;;24.45;44.85
26563;BME280;14217;50.986;5.826;2023-05-23T04:47:36;101368.41;;;24.42;44.84
26563;BME280;14217;50.986;5.826;2023-05-23T04:52:39;101366.66;;;24.41;44.73
26563;BME280;14217;50.986;5.826;2023-05-23T04:57:42;101367.84;;;24.37;44.76
26563;BME280;14217;50.986;5.826;2023-05-23T05:02:44;101367.72;;;24.39;44.66
26563;BME280;14217;50.986;5.826;2023-05-23T05:07:46;101369.75;;;24.35;44.70
26563;BME280;14217;50.986;5.826;2023-05-23T05:12:48;101380.16;;;24.40;44.29
26563;BME280;14217;50.986;5.826;2023-05-23T05:17:50;101375.97;;;24.35;44.54
26563;BME280;14217;50.986;5.826;2023-05-23T05:22:56;101367.72;;;24.39;44.42
26563;BME280;14217;50.986;5.826;2023-05-23T05:28:00;101378.63;;;24.35;44.38
26563;BME280;14217;50.986;5.826;2023-05-23T05:33:06;101376.59;;;24.39;44.24
26563;BME280;14217;50.986;5.826;2023-05-23T05:38:09;101380.25;;;24.38;44.16
26563;BME280;14217;50.986;5.826;2023-05-23T05:43:12;101392.69;;;24.39;43.94
26563;BME280;14217;50.986;5.826;2023-05-23T05:48:14;101392.69;;;24.39;44.12
26563;BME280;14217;50.986;5.826;2023-05-23T05:53:17;101388.38;;;24.37;44.08
26563;BME280;14217;50.986;5.826;2023-05-23T05:58:19;101394.78;;;24.34;44.06
26563;BME280;14217;50.986;5.826;2023-05-23T06:03:21;101395.56;;;24.36;44.01
26563;BME280;14217;50.986;5.826;2023-05-23T06:08:25;101403.59;;;24.36;43.85
26563;BME280;14217;50.986;5.826;2023-05-23T06:13:27;101407.25;;;24.35;43.93
26563;BME280;14217;50.986;5.826;2023-05-23T06:18:29;101412.59;;;24.35;43.85
26563;BME280;14217;50.986;5.826;2023-05-23T06:23:31;101417.94;;;24.35;44.15
26563;BME280;14217;50.986;5.826;2023-05-23T06:28:34;101418.19;;;24.30;44.43
26563;BME280;14217;50.986;5.826;2023-05-23T06:33:36;101423.84;;;24.26;45.07
26563;BME280;14217;50.986;5.826;2023-05-23T06:38:38;101418.81;;;24.35;44.45
26563;BME280;14217;50.986;5.826;2023-05-23T06:43:40;101416.63;;;24.42;44.18
26563;BME280;14217;50.986;5.826;2023-05-23T06:48:42;101422.81;;;24.43;43.93
26563;BME280;14217;50.986;5.826;2023-05-23T06:53:44;101429.03;;;24.43;44.14
26563;BME280;14217;50.986;5.826;2023-05-23T06:58:47;101433.47;;;24.44;44.01
26563;BME280;14217;50.986;5.826;2023-05-23T07:03:49;101432.69;;;24.42;43.88
26563;BME280;14217;50.986;5.826;2023-05-23T07:08:51;101445.09;;;24.43;43.84
26563;BME280;14217;50.986;5.826;2023-05-23T07:13:53;101452.28;;;24.43;43.84
26563;BME280;14217;50.986;5.826;2023-05-23T07:18:56;101448.69;;;24.44;43.75
26563;BME280;14217;50.986;5.826;2023-05-23T07:23:58;101461.28;;;24.42;43.67
26563;BME280;14217;50.986;5.826;2023-05-23T07:29:00;101459.19;;;24.47;43.53
26563;BME280;14217;50.986;5.826;2023-05-23T07:34:02;101462.91;;;24.44;43.30
26563;BME280;14217;50.986;5.826;2023-05-23T07:39:04;101473.63;;;24.44;43.23
26563;BME280;14217;50.986;5.826;2023-05-23T07:44:06;101477.25;;;24.43;43.46
26563;BME280;14217;50.986;5.826;2023-05-23T07:49:09;101483.59;;;24.42;43.08
26563;BME280;14217;50.986;5.826;2023-05-23T07:54:11;101491.41;;;24.45;43.34
26563;BME280;14217;50.986;5.826;2023-05-23T07:59:17;101488.09;;;24.42;43.34
26563;BME280;14217;50.986;5.826;2023-05-23T08:04:19;101487.19;;;24.41;42.95
26563;BME280;14217;50.986;5.826;2023-05-23T08:09:22;101495.16;;;24.43;42.95
26563;BME280;14217;50.986;5.826;2023-05-23T08:14:24;101497.91;;;24.41;42.98
26563;BME280;14217;50.986;5.826;2023-05-23T08:19:46;101508.75;;;24.40;43.04
26563;BME280;14217;50.986;5.826;2023-05-23T08:24:48;101509.59;;;24.40;43.00
26563;BME280;14217;50.986;5.826;2023-05-23T08:29:51;101500.59;;;24.41;42.95
26563;BME280;14217;50.986;5.826;2023-05-23T08:34:53;101513.97;;;24.41;42.73
26563;BME280;14217;50.986;5.826;2023-05-23T08:39:55;101513.13;;;24.41;42.44
26563;BME280;14217;50.986;5.826;2023-05-23T08:44:58;101517.63;;;24.40;42.64
26563;BME280;14217;50.986;5.826;2023-05-23T08:50:00;101524.88;;;24.38;42.43
26563;BME280;14217;50.986;5.826;2023-05-23T08:55:04;101533.69;;;24.40;42.42
26563;BME280;14217;50.986;5.826;2023-05-23T09:00:07;101540.88;;;24.40;42.50
26563;BME280;14217;50.986;5.826;2023-05-23T09:05:15;101547.09;;;24.40;42.31
26563;BME280;14217;50.986;5.826;2023-05-23T09:10:18;101557.72;;;24.42;42.35
26563;BME280;14217;50.986;5.826;2023-05-23T09:15:23;101558.66;;;24.41;42.01
26563;BME280;14217;50.986;5.826;2023-05-23T09:20:28;101557.81;;;24.40;42.19
26563;BME280;14217;50.986;5.826;2023-05-23T09:25:31;101558.66;;;24.41;42.20
26563;BME280;14217;50.986;5.826;2023-05-23T09:30:37;101559.44;;;24.43;41.84
26563;BME280;14217;50.986;5.826;2023-05-23T09:35:43;101563.75;;;24.45;42.02
26563;BME280;14217;50.986;5.826;2023-05-23T09:40:47;101553.22;;;24.42;41.85
26563;BME280;14217;50.986;5.826;2023-05-23T09:45:49;101558.50;;;24.44;41.67
26563;BME280;14217;50.986;5.826;2023-05-23T09:50:50;101558.50;;;24.44;41.79
26563;BME280;14217;50.986;5.826;2023-05-23T09:55:53;101561.25;;;24.42;41.81
26563;BME280;14217;50.986;5.826;2023-05-23T10:00:58;101559.28;;;24.46;41.71
26563;BME280;14217;50.986;5.826;2023-05-23T10:06:11;101555.81;;;24.44;41.60
26563;BME280;14217;50.986;5.826;2023-05-23T10:16:29;101568.25;;;24.45;41.45
26563;BME280;14217;50.986;5.826;2023-05-23T10:21:43;101560.13;;;24.46;41.47
26563;BME280;14217;50.986;5.826;2023-05-23T10:26:47;101570.94;;;24.45;41.49
26563;BME280;14217;50.986;5.826;2023-05-23T10:31:51;101572.84;;;24.43;41.33
26563;BME280;14217;50.986;5.826;2023-05-23T10:37:00;101576.38;;;24.43;41.48
26563;BME280;14217;50.986;5.826;2023-05-23T10:42:14;101584.31;;;24.45;41.36
26563;BME280;14217;50.986;5.826;2023-05-23T10:47:27;101581.72;;;24.43;41.23
26563;BME280;14217;50.986;5.826;2023-05-23T10:52:38;101586.31;;;24.41;41.50
26563;BME280;14217;50.986;5.826;2023-05-23T10:57:41;101582.50;;;24.45;41.24
26563;BME280;14217;50.986;5.826;2023-05-23T11:02:54;101575.22;;;24.47;40.99
26563;BME280;14217;50.986;5.826;2023-05-23T11:08:11;101575.19;;;24.49;41.13
26563;BME280;14217;50.986;5.826;2023-05-23T11:13:22;101581.31;;;24.51;41.20
26563;BME280;14217;50.986;5.826;2023-05-23T11:18:27;101582.34;;;24.48;41.03
26563;BME280;14217;50.986;5.826;2023-05-23T11:23:39;101588.81;;;24.44;41.38
26563;BME280;14217;50.986;5.826;2023-05-23T11:28:54;101584.25;;;24.46;40.98
26563;BME280;14217;50.986;5.826;2023-05-23T11:33:57;101589.69;;;24.45;41.12
26563;BME280;14217;50.986;5.826;2023-05-23T11:39:03;101586.16;;;24.44;40.92
26563;BME280;14217;50.986;5.826;2023-05-23T11:44:12;101588.81;;;24.44;40.82
26563;BME280;14217;50.986;5.826;2023-05-23T11:49:14;101581.56;;;24.46;40.93
26563;BME280;14217;50.986;5.826;2023-05-23T11:54:16;101585.09;;;24.47;40.75
26563;BME280;14217;50.986;5.826;2023-05-23T11:59:20;101591.25;;;24.49;40.86
26563;BME280;14217;50.986;5.826;2023-05-23T12:04:24;101587.78;;;24.47;40.99
26563;BME280;14217;50.986;5.826;2023-05-23T12:09:26;101599.22;;;24.50;40.91
26563;BME280;14217;50.986;5.826;2023-05-23T12:14:28;101597.56;;;24.48;40.52
26563;BME280;14217;50.986;5.826;2023-05-23T12:19:31;101595.56;;;24.51;40.59
26563;BME280;14217;50.986;5.826;2023-05-23T12:24:33;101597.31;;;24.52;40.54
26563;BME280;14217;50.986;5.826;2023-05-23T12:29:35;101595.69;;;24.50;40.61
26563;BME280;14217;50.986;5.826;2023-05-23T12:34:42;101586.75;;;24.49;40.49
26563;BME280;14217;50.986;5.826;2023-05-23T12:39:44;101576.22;;;24.46;40.66
26563;BME280;14217;50.986;5.826;2023-05-23T12:44:50;101586.91;;;24.46;40.42
26563;BME280;14217;50.986;5.826;2023-05-23T12:49:52;101580.78;;;24.44;38.94
26563;BME280;14217;50.986;5.826;2023-05-23T12:54:54;101579.03;;;24.43;37.16
26563;BME280;14217;50.986;5.826;2023-05-23T12:59:57;101585.38;;;24.42;37.44
26563;BME280;14217;50.986;5.826;2023-05-23T13:04:59;101578.03;;;24.46;37.25
26563;BME280;14217;50.986;5.826;2023-05-23T13:10:02;101582.41;;;24.47;36.67
26563;BME280;14217;50.986;5.826;2023-05-23T13:15:05;101587.97;;;24.44;36.25
26563;BME280;14217;50.986;5.826;2023-05-23T13:20:09;101590.66;;;24.44;35.92
26563;BME280;14217;50.986;5.826;2023-05-23T13:25:12;101583.47;;;24.44;36.22
26563;BME280;14217;50.986;5.826;2023-05-23T13:30:14;101586.91;;;24.46;36.01
26563;BME280;14217;50.986;5.826;2023-05-23T13:35:17;101590.56;;;24.29;35.21
26563;BME280;14217;50.986;5.826;2023-05-23T13:40:20;101583.16;;;24.19;35.72
26563;BME280;14217;50.986;5.826;2023-05-23T13:45:23;101587.13;;;24.11;34.53
26563;BME280;14217;50.986;5.826;2023-05-23T13:50:26;101573.56;;;24.14;34.49
26563;BME280;14217;50.986;5.826;2023-05-23T13:55:28;101568.63;;;24.23;34.63
26563;BME280;14217;50.986;5.826;2023-05-23T14:00:31;101582.69;;;24.26;34.54
26563;BME280;14217;50.986;5.826;2023-05-23T14:05:34;101569.22;;;24.28;34.48
26563;BME280;14217;50.986;5.826;2023-05-23T14:10:37;101572.09;;;24.25;34.77
26563;BME280;14217;50.986;5.826;2023-05-23T14:15:40;101572.59;;;24.31;34.65
26563;BME280;14217;50.986;5.826;2023-05-23T14:20:43;101562.75;;;24.32;35.03
26563;BME280;14217;50.986;5.826;2023-05-23T14:25:45;101572.59;;;24.31;35.00
26563;BME280;14217;50.986;5.826;2023-05-23T14:30:48;101568.88;;;24.34;34.75
26563;BME280;14217;50.986;5.826;2023-05-23T14:35:50;101574.16;;;24.35;35.19
26563;BME280;14217;50.986;5.826;2023-05-23T14:40:52;101568.72;;;24.37;35.02
26563;BME280;14217;50.986;5.826;2023-05-23T14:45:55;101572.41;;;24.34;34.84
26563;BME280;14217;50.986;5.826;2023-05-23T14:50:58;101573.47;;;24.32;34.86
26563;BME280;14217;50.986;5.826;2023-05-23T14:56:02;101575.00;;;24.36;35.17
26563;BME280;14217;50.986;5.826;2023-05-23T15:01:04;101566.97;;;24.36;34.32
26563;BME280;14217;50.986;5.826;2023-05-23T15:06:07;101552.25;;;24.43;34.70
26563;BME280;14217;50.986;5.826;2023-05-23T15:11:09;101561.19;;;24.44;34.63
26563;BME280;14217;50.986;5.826;2023-05-23T15:16:13;101560.22;;;24.45;34.52
26563;BME280;14217;50.986;5.826;2023-05-23T15:21:17;101567.41;;;24.44;34.70
26563;BME280;14217;50.986;5.826;2023-05-23T15:26:19;101562.03;;;24.44;34.66
26563;BME280;14217;50.986;5.826;2023-05-23T15:31:22;101555.81;;;24.44;34.31
26563;BME280;14217;50.986;5.826;2023-05-23T15:36:24;101553.31;;;24.41;34.58
26563;BME280;14217;50.986;5.826;2023-05-23T15:41:26;101548.16;;;24.38;33.82
26563;BME280;14217;50.986;5.826;2023-05-23T15:46:28;101549.97;;;24.37;33.77
26563;BME280;14217;50.986;5.826;2023-05-23T15:51:31;101558.22;;;24.48;34.25
26563;BME280;14217;50.986;5.826;2023-05-23T15:56:33;101554.78;;;24.46;34.40
26563;BME280;14217;50.986;5.826;2023-05-23T16:01:35;101551.13;;;24.47;34.85
26563;BME280;14217;50.986;5.826;2023-05-23T16:06:38;101547.34;;;24.51;34.91
26563;BME280;14217;50.986;5.826;2023-05-23T16:11:40;101554.63;;;24.49;35.49
26563;BME280;14217;50.986;5.826;2023-05-23T16:16:42;101558.38;;;24.45;35.23
26563;BME280;14217;50.986;5.826;2023-05-23T16:21:45;101568.09;;;24.48;35.48
26563;BME280;14217;50.986;5.826;2023-05-23T16:26:48;101566.22;;;24.50;35.87
26563;BME280;14217;50.986;5.826;2023-05-23T16:31:50;101559.28;;;24.46;35.47
26563;BME280;14217;50.986;5.826;2023-05-23T16:36:52;101570.00;;;24.46;35.61
26563;BME280;14217;50.986;5.826;2023-05-23T16:41:55;101561.34;;;24.41;35.68
26563;BME280;14217;50.986;5.826;2023-05-23T16:47:00;101560.41;;;24.42;35.42
26563;BME280;14217;50.986;5.826;2023-05-23T16:52:03;101563.16;;;24.56;35.43
26563;BME280;14217;50.986;5.826;2023-05-23T16:57:05;101560.28;;;24.43;34.88
26563;BME280;14217;50.986;5.826;2023-05-23T17:02:12;101563.84;;;24.44;33.93
26563;BME280;14217;50.986;5.826;2023-05-23T17:07:15;101565.84;;;24.40;34.17
26563;BME280;14217;50.986;5.826;2023-05-23T17:12:18;101571.97;;;24.42;34.49
26563;BME280;14217;50.986;5.826;2023-05-23T17:17:23;101570.84;;;24.46;34.85
26563;BME280;14217;50.986;5.826;2023-05-23T17:22:27;101574.47;;;24.45;34.58
26563;BME280;14217;50.986;5.826;2023-05-23T17:27:29;101580.00;;;24.42;34.69
26563;BME280;14217;50.986;5.826;2023-05-23T17:32:32;101579.03;;;24.43;34.24
26563;BME280;14217;50.986;5.826;2023-05-23T17:37:37;101579.94;;;24.44;34.50
26563;BME280;14217;50.986;5.826;2023-05-23T17:42:44;101576.38;;;24.43;34.53
26563;BME280;14217;50.986;5.826;2023-05-23T17:47:46;101579.03;;;24.43;34.90
26563;BME280;14217;50.986;5.826;2023-05-23T17:52:49;101585.19;;;24.45;35.17
26563;BME280;14217;50.986;5.826;2023-05-23T17:57:51;101592.28;;;24.46;34.20
26563;BME280;14217;50.986;5.826;2023-05-23T18:02:54;101593.22;;;24.45;33.76
26563;BME280;14217;50.986;5.826;2023-05-23T18:08:06;101598.88;;;24.57;34.31
26563;BME280;14217;50.986;5.826;2023-05-23T18:13:12;101597.47;;;24.49;35.45
26563;BME280;14217;50.986;5.826;2023-05-23T18:18:17;101600.84;;;24.53;35.88
26563;BME280;14217;50.986;5.826;2023-05-23T18:23:20;101595.84;;;24.63;36.44
26563;BME280;14217;50.986;5.826;2023-05-23T18:28:22;101605.41;;;24.67;36.51
26563;BME280;14217;50.986;5.826;2023-05-23T18:33:25;101602.22;;;24.60;37.13
26563;BME280;14217;50.986;5.826;2023-05-23T18:38:28;101602.47;;;24.55;37.43
26563;BME280;14217;50.986;5.826;2023-05-23T18:43:32;101612.63;;;24.50;37.33
26563;BME280;14217;50.986;5.826;2023-05-23T18:48:34;101614.47;;;24.48;37.14
26563;BME280;14217;50.986;5.826;2023-05-23T18:53:37;101626.09;;;24.49;37.11
26563;BME280;14217;50.986;5.826;2023-05-23T18:58:43;101632.38;;;24.48;36.97
26563;BME280;14217;50.986;5.826;2023-05-23T19:03:47;101632.53;;;24.45;36.86
26563;BME280;14217;50.986;5.826;2023-05-23T19:08:53;101636.84;;;24.47;36.97
26563;BME280;14217;50.986;5.826;2023-05-23T19:13:55;101647.84;;;24.43;37.01
26563;BME280;14217;50.986;5.826;2023-05-23T19:18:59;101662.97;;;24.44;37.15
26563;BME280;14217;50.986;5.826;2023-05-23T19:24:01;101662.09;;;24.43;37.09
26563;BME280;14217;50.986;5.826;2023-05-23T19:29:08;101665.72;;;24.42;37.12
26563;BME280;14217;50.986;5.826;2023-05-23T19:34:13;101662.19;;;24.42;37.34
26563;BME280;14217;50.986;5.826;2023-05-23T19:39:18;101658.41;;;24.46;37.61
26563;BME280;14217;50.986;5.826;2023-05-23T19:44:22;101670.50;;;24.37;37.53
26563;BME280;14217;50.986;5.826;2023-05-23T19:49:25;101675.06;;;24.35;37.30
26563;BME280;14217;50.986;5.826;2023-05-23T19:54:27;101693.06;;;24.33;37.26
26563;BME280;14217;50.986;5.826;2023-05-23T19:59:30;101696.66;;;24.32;37.44
26563;BME280;14217;50.986;5.826;2023-05-23T20:04:33;101705.66;;;24.31;37.34
26563;BME280;14217;50.986;5.826;2023-05-23T20:09:37;101712.91;;;24.29;37.75
26563;BME280;14217;50.986;5.826;2023-05-23T20:14:40;101727.94;;;24.31;37.69
26563;BME280;14217;50.986;5.826;2023-05-23T20:19:45;101725.41;;;24.28;37.39
26563;BME280;14217;50.986;5.826;2023-05-23T20:24:51;101728.09;;;24.28;37.50
26563;BME280;14217;50.986;5.826;2023-05-23T20:30:02;101731.66;;;24.29;37.62
26563;BME280;14217;50.986;5.826;2023-05-23T20:35:05;101738.81;;;24.28;37.80
26563;BME280;14217;50.986;5.826;2023-05-23T20:40:07;101744.09;;;24.30;37.69
26563;BME280;14217;50.986;5.826;2023-05-23T20:45:10;101743.63;;;24.22;37.94
26563;BME280;14217;50.986;5.826;2023-05-23T20:50:12;101756.00;;;24.24;38.07
26563;BME280;14217;50.986;5.826;2023-05-23T20:55:15;101758.44;;;24.29;38.13
26563;BME280;14217;50.986;5.826;2023-05-23T21:00:18;101770.41;;;24.22;38.10
26563;BME280;14217;50.986;5.826;2023-05-23T21:05:27;101768.31;;;24.11;38.46
26563;BME280;14217;50.986;5.826;2023-05-23T21:10:29;101773.69;;;24.11;37.75
26563;BME280;14217;50.986;5.826;2023-05-23T21:15:31;101771.63;;;24.16;38.00
26563;BME280;14217;50.986;5.826;2023-05-23T21:20:35;101777.59;;;24.21;38.19
26563;BME280;14217;50.986;5.826;2023-05-23T21:25:39;101770.41;;;24.22;38.08
26563;BME280;14217;50.986;5.826;2023-05-23T21:30:41;101772.69;;;24.29;38.01
26563;BME280;14217;50.986;5.826;2023-05-23T21:35:44;101770.09;;;24.28;37.58
26563;BME280;14217;50.986;5.826;2023-05-23T21:40:48;101767.41;;;24.28;37.93
26563;BME280;14217;50.986;5.826;2023-05-23T21:45:50;101774.50;;;24.29;37.67
26563;BME280;14217;50.986;5.826;2023-05-23T21:50:53;101773.72;;;24.27;37.87
26563;BME280;14217;50.986;5.826;2023-05-23T21:55:55;101769.22;;;24.27;37.88
26563;BME280;14217;50.986;5.826;2023-05-23T22:00:57;101774.50;;;24.29;37.69
26563;BME280;14217;50.986;5.826;2023-05-23T22:05:59;101779.09;;;24.27;37.98
26563;BME280;14217;50.986;5.826;2023-05-23T22:11:01;101764.72;;;24.28;37.93
26563;BME280;14217;50.986;5.826;2023-05-23T22:16:05;101770.94;;;24.28;37.82
26563;BME280;14217;50.986;5.826;2023-05-23T22:21:07;101770.09;;;24.28;37.97
26563;BME280;14217;50.986;5.826;2023-05-23T22:26:10;101781.78;;;24.27;37.99
26563;BME280;14217;50.986;5.826;2023-05-23T22:31:13;101778.91;;;24.30;38.15
26563;BME280;14217;50.986;5.826;2023-05-23T22:36:16;101777.34;;;24.26;37.83
26563;BME280;14217;50.986;5.826;2023-05-23T22:41:18;101777.41;;;24.24;37.95
26563;BME280;14217;50.986;5.826;2023-05-23T22:46:20;101780.03;;;24.26;37.93
26563;BME280;14217;50.986;5.826;2023-05-23T22:51:22;101778.31;;;24.25;37.88
26563;BME280;14217;50.986;5.826;2023-05-23T22:56:25;101763.34;;;24.21;38.18
26563;BME280;14217;50.986;5.826;2023-05-23T23:01:28;101765.00;;;24.23;38.25
26563;BME280;14217;50.986;5.826;2023-05-23T23:06:30;101767.47;;;24.26;37.84
26563;BME280;14217;50.986;5.826;2023-05-23T23:11:34;101766.88;;;24.21;38.15
26563;BME280;14217;50.986;5.826;2023-05-23T23:16:36;101759.56;;;24.25;38.15
26563;BME280;14217;50.986;5.826;2023-05-23T23:21:40;101764.03;;;24.24;37.90
26563;BME280;14217;50.986;5.826;2023-05-23T23:26:42;101767.75;;;24.22;38.31
26563;BME280;14217;50.986;5.826;2023-05-23T23:31:44;101763.25;;;24.22;38.23
26563;BME280;14217;50.986;5.826;2023-05-23T23:36:46;101772.16;;;24.23;38.04
26563;BME280;14217;50.986;5.826;2023-05-23T23:41:48;101760.56;;;24.22;38.24
26563;BME280;14217;50.986;5.826;2023-05-23T23:46:51;101767.75;;;24.22;38.02
26563;BME280;14217;50.986;5.826;2023-05-23T23:51:53;101770.34;;;24.23;38.03
26563;BME280;14217;50.986;5.826;2023-05-23T23:56:55;101762.47;;;24.20;38.25
